Terral, Oklahoma
Current Conditions -  °F | °C
As of 3:55 PM on Tuesday 25 Nov 2014 (Local Time) from K0F2 Reporting Station
Clear Clear  
Wind Chill: 56°   Ceiling: Unl
Heat Index: 56°   Visibility: 10mi
Dew Point: 23°   Wind: 6mph
Humidity: 28%   Direction: 270°W
Pressure: 30.16"   Gusts: NA
Location:  33.9°N, 97.94°W
Report Text: K0F2 252155Z AUTO 27005KT 10SM CLR 14/M05 A3016 RMK AO2 T01351048
Loading
Personal Weather Stations






























Interactive Weather Map New forecast layout! Learn more

10-Day Weather Forecast

Advertisements
Track Severe Weather on mobile